Time;durP1;ratioP1;P1;durP2;ratioP2;P2;SDS_P1;SDS_P2;PMS_P1;PMS_P2;Temp;Humidity;BMP_temperature;BMP_pressure;BME280_temperature;BME280_humidity;BME280_pressure;Samples;Min_cycle;Max_cycle;Signal;HPM_P1;HPM_P2
2020/12/19 00:01:48;;;;;;;7.07;4.88;;;;;;;17.92;55.25;101395.94;4819562;29;20708;-79
2020/12/19 00:04:13;;;;;;;9.82;5.65;;;;;;;17.89;55.21;101399.44;4836753;29;20049;-78
2020/12/19 00:06:45;;;;;;;7.07;4.90;;;;;;;17.84;55.33;101396.84;4850010;29;20041;-78
2020/12/19 00:09:11;;;;;;;8.02;4.93;;;;;;;17.80;55.28;101392.47;4827772;29;20034;-78
2020/12/19 00:11:43;;;;;;;7.82;4.90;;;;;;;17.76;55.33;101385.53;4826343;29;20045;-79
2020/12/19 00:14:09;;;;;;;7.13;5.07;;;;;;;17.73;55.22;101387.28;4839415;29;20488;-79
2020/12/19 00:16:34;;;;;;;6.60;4.80;;;;;;;17.70;55.30;101382.91;4862870;29;20090;-79
2020/12/19 00:19:00;;;;;;;7.93;4.95;;;;;;;17.68;55.16;101385.56;4810177;29;20036;-78
2020/12/19 00:21:33;;;;;;;7.45;5.10;;;;;;;17.68;55.19;101385.56;4838664;29;20060;-79
2020/12/19 00:23:59;;;;;;;8.15;5.03;;;;;;;17.68;55.22;101384.66;4851699;29;20042;-79
2020/12/19 00:26:31;;;;;;;5.93;4.68;;;;;;;17.65;55.16;101372.53;4839148;29;20484;-80
2020/12/19 00:28:57;;;;;;;6.72;4.93;;;;;;;17.65;55.16;101377.72;4840676;29;20033;-79
2020/12/19 00:31:25;;;;;;;6.60;4.55;;;;;;;17.65;55.01;101379.47;4851120;29;20381;-80
2020/12/19 00:33:50;;;;;;;6.43;4.55;;;;;;;17.63;54.88;101376.84;4855515;29;20488;-79
2020/12/19 00:36:16;;;;;;;6.03;4.45;;;;;;;17.63;55.12;101381.22;4842679;29;20086;-79
2020/12/19 00:38:41;;;;;;;4.97;4.03;;;;;;;17.62;55.17;101371.69;4855204;29;20132;-79
2020/12/19 00:41:07;;;;;;;5.85;4.10;;;;;;;17.62;55.00;101366.47;4826436;29;20041;-79
2020/12/19 00:43:32;;;;;;;5.53;4.10;;;;;;;17.60;55.21;101368.22;4814525;29;20034;-79
2020/12/19 00:45:57;;;;;;;5.88;4.38;;;;;;;17.61;55.16;101362.97;4828647;29;20121;-78
2020/12/19 00:48:23;;;;;;;7.22;4.63;;;;;;;17.60;54.95;101363.00;4841428;29;20485;-78
2020/12/19 00:50:48;;;;;;;5.80;4.10;;;;;;;17.59;54.79;101366.47;4840298;29;20100;-78
2020/12/19 00:53:13;;;;;;;5.60;4.13;;;;;;;17.59;54.93;101361.25;4842115;29;20038;-80
2020/12/19 00:55:39;;;;;;;5.75;4.35;;;;;;;17.60;54.93;101370.81;4814270;29;20025;-79
2020/12/19 00:58:04;;;;;;;6.40;4.15;;;;;;;17.59;54.74;101361.25;4826758;29;20034;-79
2020/12/19 01:00:29;;;;;;;6.45;4.05;;;;;;;17.58;54.85;101356.94;4856409;29;20033;-79
2020/12/19 01:02:54;;;;;;;6.80;4.15;;;;;;;17.57;54.58;101348.28;4827483;29;20046;-79
2020/12/19 01:05:20;;;;;;;6.60;4.10;;;;;;;17.57;54.61;101352.59;4829021;29;20046;-79
2020/12/19 01:07:45;;;;;;;5.68;3.95;;;;;;;17.57;54.79;101347.38;4842672;29;20025;-79
2020/12/19 01:10:11;;;;;;;5.07;3.88;;;;;;;17.57;54.86;101352.59;4834959;29;20037;-78
2020/12/19 01:12:38;;;;;;;5.22;3.88;;;;;;;17.57;54.63;101348.28;4821483;29;20572;-79
2020/12/19 01:15:07;;;;;;;5.10;3.92;;;;;;;17.57;54.86;101357.78;4844453;29;20053;-79
2020/12/19 01:17:33;;;;;;;5.38;3.90;;;;;;;17.56;54.64;101358.66;4827855;29;20038;-79
2020/12/19 01:19:59;;;;;;;6.07;4.28;;;;;;;17.55;54.80;101359.53;4843752;29;20033;-79
2020/12/19 01:22:25;;;;;;;5.13;3.75;;;;;;;17.57;54.64;101352.59;4823523;29;20056;-79
2020/12/19 01:24:50;;;;;;;5.35;3.92;;;;;;;17.56;54.69;101350.84;4846246;29;20516;-79
2020/12/19 01:27:15;;;;;;;4.35;3.50;;;;;;;17.55;54.59;101352.59;4858994;29;20030;-79
2020/12/19 01:29:41;;;;;;;4.30;3.05;;;;;;;17.54;54.50;101356.06;4860536;29;20033;-79
2020/12/19 01:32:06;;;;;;;4.93;3.72;;;;;;;17.56;54.63;101354.31;4865364;29;20067;-79
2020/12/19 01:34:32;;;;;;;4.72;3.47;;;;;;;17.54;54.50;101350.00;4847489;29;20034;-79
2020/12/19 01:36:57;;;;;;;4.25;3.47;;;;;;;17.54;54.31;101348.25;4862197;29;20048;-80
2020/12/19 01:39:23;;;;;;;5.10;3.72;;;;;;;17.54;54.64;101344.78;4847538;29;20045;-79
2020/12/19 01:41:52;;;;;;;4.45;3.40;;;;;;;17.53;54.51;101348.25;4847075;29;20385;-79
2020/12/19 01:44:17;;;;;;;4.53;3.53;;;;;;;17.53;54.58;101345.63;4844465;29;20078;-79
2020/12/19 01:47:03;;;;;;;5.20;3.78;;;;;;;17.53;54.45;101350.84;4844730;29;20042;-79
2020/12/19 01:49:30;;;;;;;5.72;3.40;;;;;;;17.53;54.49;101353.44;4847021;29;20041;-79
2020/12/19 01:52:02;;;;;;;5.75;3.38;;;;;;;17.51;54.14;101350.88;4843672;29;20033;-79
2020/12/19 01:54:28;;;;;;;4.03;3.00;;;;;;;17.52;54.51;101341.31;4855127;29;20465;-79
2020/12/19 01:56:56;;;;;;;4.50;3.20;;;;;;;17.48;54.46;101338.75;4848365;29;20033;-77
2020/12/19 01:59:23;;;;;;;4.28;3.20;;;;;;;17.48;54.48;101343.03;4854056;29;20028;-77
2020/12/19 02:01:49;;;;;;;4.32;3.25;;;;;;;17.49;54.62;101342.19;4859107;29;20359;-77
2020/12/19 02:04:16;;;;;;;4.03;3.08;;;;;;;17.48;54.36;101340.44;4842682;29;20038;-77
2020/12/19 02:06:45;;;;;;;4.45;3.13;;;;;;;17.49;54.32;101337.00;4848341;29;20044;-77
2020/12/19 02:09:12;;;;;;;5.05;3.22;;;;;;;17.48;54.37;101333.53;4859831;29;20858;-77
2020/12/19 02:11:38;;;;;;;3.97;2.85;;;;;;;17.47;54.34;101334.38;4846679;29;20493;-77
2020/12/19 02:14:08;;;;;;;5.82;3.25;;;;;;;17.46;54.40;101334.38;4861013;29;20057;-77
2020/12/19 02:16:34;;;;;;;4.05;3.30;;;;;;;17.46;54.37;101327.47;4838665;29;20049;-77
2020/12/19 02:19:00;;;;;;;4.10;2.95;;;;;;;17.45;54.31;101323.09;4844823;29;20029;-77
2020/12/19 02:21:26;;;;;;;3.70;2.83;;;;;;;17.46;54.34;101324.88;4841615;29;20116;-77
2020/12/19 02:23:51;;;;;;;4.32;3.00;;;;;;;17.46;54.33;101327.47;4821157;29;20112;-77
2020/12/19 02:26:16;;;;;;;4.05;3.13;;;;;;;17.45;54.27;101317.91;4846648;29;20121;-77
2020/12/19 02:28:42;;;;;;;4.80;3.20;;;;;;;17.45;54.40;101319.66;4828409;29;20461;-77
2020/12/19 02:31:07;;;;;;;3.97;2.70;;;;;;;17.46;54.26;101313.56;4815304;29;20080;-77
2020/12/19 02:33:33;;;;;;;4.03;3.00;;;;;;;17.46;54.14;101317.06;4833789;29;20038;-77
2020/12/19 02:35:58;;;;;;;3.97;2.92;;;;;;;17.46;54.17;101314.44;4836691;29;20077;-77
2020/12/19 02:38:24;;;;;;;3.63;2.88;;;;;;;17.45;54.26;101307.50;4828063;29;20123;-77
2020/12/19 02:40:49;;;;;;;4.68;3.20;;;;;;;17.44;54.13;101307.50;4831801;29;20394;-77
2020/12/19 02:43:14;;;;;;;3.58;2.60;;;;;;;17.44;54.05;101303.19;4845729;29;20039;-77
2020/12/19 02:45:40;;;;;;;3.92;2.75;;;;;;;17.44;54.17;101312.69;4842829;29;20037;-77
2020/12/19 02:48:05;;;;;;;3.63;2.75;;;;;;;17.44;54.19;101303.19;4845488;29;20116;-77
2020/12/19 02:50:30;;;;;;;3.78;2.70;;;;;;;17.43;54.09;101298.81;4846219;29;20392;-77
2020/12/19 02:52:55;;;;;;;4.03;2.63;;;;;;;17.42;54.13;101296.22;4829313;29;20030;-77
2020/12/19 02:55:21;;;;;;;4.32;2.97;;;;;;;17.42;54.10;101297.09;4839651;29;20101;-77
2020/12/19 02:57:46;;;;;;;3.33;2.55;;;;;;;17.43;54.09;101287.56;4834492;29;20037;-77
2020/12/19 03:00:11;;;;;;;3.20;2.55;;;;;;;17.42;54.10;101293.63;4819938;29;20042;-77
2020/12/19 03:02:37;;;;;;;3.72;2.80;;;;;;;17.42;53.94;101281.50;4827942;29;20022;-77
2020/12/19 03:05:02;;;;;;;2.97;2.58;;;;;;;17.42;53.96;101275.41;4857697;29;20116;-77
2020/12/19 03:07:27;;;;;;;3.70;3.00;;;;;;;17.40;54.16;101278.03;4838662;29;20085;-77
2020/12/19 03:09:54;;;;;;;3.90;2.72;;;;;;;17.41;54.06;101279.75;4842992;29;20045;-77
2020/12/19 03:12:19;;;;;;;3.58;2.47;;;;;;;17.40;54.08;101280.63;4826944;29;20034;-77
2020/12/19 03:14:44;;;;;;;4.47;3.03;;;;;;;17.41;53.99;101278.88;4834595;29;20066;-79
2020/12/19 03:17:10;;;;;;;3.03;2.50;;;;;;;17.39;54.44;101265.03;4857619;29;20068;-79
2020/12/19 03:19:35;;;;;;;3.28;2.50;;;;;;;17.39;53.98;101267.63;4836948;29;20469;-79
2020/12/19 03:22:00;;;;;;;4.82;2.75;;;;;;;17.39;53.92;101272.81;4842930;29;20033;-79
2020/12/19 03:24:26;;;;;;;3.00;2.22;;;;;;;17.38;54.06;101271.97;4814820;29;20029;-79
2020/12/19 03:26:51;;;;;;;3.55;2.50;;;;;;;17.37;54.08;101267.59;4827292;29;20037;-79
2020/12/19 03:29:16;;;;;;;3.08;2.50;;;;;;;17.39;53.94;101265.03;4843558;29;20437;-79
2020/12/19 03:31:42;;;;;;;2.90;2.20;;;;;;;17.39;53.99;101257.22;4840641;29;20038;-79
2020/12/19 03:34:07;;;;;;;3.90;2.70;;;;;;;17.37;54.11;101249.41;4835679;29;20044;-78
2020/12/19 03:36:32;;;;;;;3.15;2.30;;;;;;;17.38;53.83;101247.69;4825786;29;20061;-79
2020/12/19 03:38:58;;;;;;;3.40;2.45;;;;;;;17.37;53.75;101252.00;4824348;29;20393;-79
2020/12/19 03:41:24;;;;;;;2.80;2.10;;;;;;;17.37;53.90;101248.53;4867350;29;20141;-79
2020/12/19 03:43:50;;;;;;;2.55;2.13;;;;;;;17.36;53.89;101242.47;4846603;29;20571;-79
2020/12/19 03:46:16;;;;;;;2.78;2.47;;;;;;;17.35;53.86;101248.53;4843822;29;20105;-79
2020/12/19 03:48:41;;;;;;;3.13;2.35;;;;;;;17.35;54.26;101243.34;4843797;29;20029;-79
2020/12/19 03:51:07;;;;;;;2.72;2.17;;;;;;;17.35;53.92;101242.47;4859867;29;20053;-78
2020/12/19 03:53:32;;;;;;;2.90;2.20;;;;;;;17.34;53.90;101233.81;4845180;29;20030;-78
2020/12/19 03:55:58;;;;;;;2.97;2.10;;;;;;;17.35;53.73;101247.69;4818912;29;20473;-79
2020/12/19 03:58:23;;;;;;;3.22;2.45;;;;;;;17.34;53.79;101227.75;4842106;29;20110;-78
2020/12/19 04:00:48;;;;;;;3.28;2.20;;;;;;;17.33;53.83;101232.06;4826923;29;20522;-78
2020/12/19 04:03:14;;;;;;;3.05;2.38;;;;;;;17.34;53.74;101220.81;4855392;29;20033;-79
2020/12/19 04:05:39;;;;;;;2.67;2.08;;;;;;;17.33;53.66;101221.66;4844177;29;20041;-79
2020/12/19 04:08:04;;;;;;;2.80;2.10;;;;;;;17.33;53.88;101220.81;4827114;29;20041;-79
2020/12/19 04:10:30;;;;;;;2.33;1.88;;;;;;;17.32;53.88;101219.94;4825895;29;20037;-78
2020/12/19 04:12:55;;;;;;;2.47;2.00;;;;;;;17.32;53.77;101211.28;4835956;29;20076;-79
2020/12/19 04:15:23;;;;;;;3.13;2.30;;;;;;;17.30;53.75;101208.66;4834840;29;20085;-77
2020/12/19 04:17:50;;;;;;;2.50;2.08;;;;;;;17.31;53.67;101205.22;4810377;29;20045;-77
2020/12/19 04:20:16;;;;;;;3.20;2.30;;;;;;;17.31;53.79;101215.63;4843257;29;20116;-77
2020/12/19 04:22:41;;;;;;;2.88;2.15;;;;;;;17.30;53.64;101203.47;4858280;29;20125;-77
2020/12/19 04:25:09;;;;;;;2.30;1.75;;;;;;;17.30;53.57;101197.41;4861278;29;20033;-77
2020/12/19 04:27:34;;;;;;;2.80;2.15;;;;;;;17.30;53.68;101205.22;4837786;29;20595;-77
2020/12/19 04:30:00;;;;;;;2.22;1.80;;;;;;;17.29;53.45;101196.56;4855698;29;20041;-77
2020/12/19 04:32:25;;;;;;;2.45;2.13;;;;;;;17.30;53.74;101190.47;4834363;29;20137;-77
2020/12/19 04:34:51;;;;;;;3.10;2.40;;;;;;;17.28;53.82;101187.84;4833343;29;20033;-77
2020/12/19 04:37:16;;;;;;;3.22;2.25;;;;;;;17.28;53.78;101187.00;4839704;29;20105;-77
2020/12/19 04:39:41;;;;;;;3.03;2.33;;;;;;;17.29;53.75;101188.75;4839411;29;20037;-77
2020/12/19 04:42:07;;;;;;;2.30;2.00;;;;;;;17.27;53.80;101175.75;4827815;29;20034;-77
2020/12/19 04:44:32;;;;;;;2.70;2.15;;;;;;;17.27;53.59;101186.13;4839318;29;20041;-77
2020/12/19 04:46:58;;;;;;;3.15;1.80;;;;;;;17.27;53.69;101178.34;4864350;29;20376;-77
2020/12/19 04:49:24;;;;;;;2.88;2.33;;;;;;;17.26;53.65;101175.72;4834945;29;20038;-77
2020/12/19 04:51:49;;;;;;;2.92;2.10;;;;;;;17.27;53.75;101180.94;4829084;29;20041;-77
2020/12/19 04:54:14;;;;;;;2.63;2.22;;;;;;;17.26;53.70;101168.78;4860645;29;20068;-77
2020/12/19 04:56:40;;;;;;;2.55;2.05;;;;;;;17.26;53.66;101165.34;4826057;29;20093;-77
2020/12/19 04:59:06;;;;;;;2.33;1.85;;;;;;;17.26;53.63;101171.38;4860922;29;20041;-77
2020/12/19 05:01:32;;;;;;;2.90;2.20;;;;;;;17.26;53.55;101165.34;4842875;29;20034;-77
2020/12/19 05:03:57;;;;;;;3.63;2.20;;;;;;;17.25;53.23;101154.06;4837619;29;20041;-77
2020/12/19 05:06:25;;;;;;;2.15;1.73;;;;;;;17.25;53.65;101155.81;4856253;29;20033;-77
2020/12/19 05:08:51;;;;;;;2.72;2.00;;;;;;;17.24;53.74;101152.31;4846220;29;20051;-77
2020/12/19 05:11:17;;;;;;;2.30;1.73;;;;;;;17.26;53.63;101157.53;4834771;29;20045;-77
2020/12/19 05:13:44;;;;;;;3.13;2.35;;;;;;;17.25;53.78;101148.00;4850199;29;20037;-77
2020/12/19 05:16:10;;;;;;;2.13;1.90;;;;;;;17.25;53.42;101138.47;4833518;29;20045;-77
2020/12/19 05:18:37;;;;;;;2.60;1.90;;;;;;;17.26;53.87;101134.13;4837105;29;20034;-77
2020/12/19 05:21:04;;;;;;;2.40;1.60;;;;;;;17.26;53.54;101128.91;4868811;29;20086;-77
2020/12/19 05:23:30;;;;;;;2.35;1.88;;;;;;;17.25;53.65;101135.00;4840226;29;20380;-78
2020/12/19 05:25:56;;;;;;;1.90;1.58;;;;;;;17.25;53.46;101128.06;4844904;29;20038;-77
2020/12/19 05:28:21;;;;;;;2.83;1.90;;;;;;;17.24;53.62;101128.91;4860765;29;20038;-77
2020/12/19 05:30:47;;;;;;;2.22;1.73;;;;;;;17.25;53.60;101130.66;4859833;29;20029;-77
2020/12/19 05:33:14;;;;;;;2.35;1.70;;;;;;;17.26;53.49;101136.72;4845253;29;20037;-77
2020/12/19 05:35:40;;;;;;;2.47;1.92;;;;;;;17.26;53.48;101139.31;4841983;29;20041;-77
2020/12/19 05:38:06;;;;;;;2.10;1.60;;;;;;;17.25;53.53;101135.00;4818307;29;20481;-77
2020/12/19 05:40:33;;;;;;;2.28;1.63;;;;;;;17.25;53.56;101125.47;4845723;29;20045;-77
2020/12/19 05:42:59;;;;;;;2.78;1.98;;;;;;;17.25;53.59;101124.59;4844568;29;20033;-77
2020/12/19 05:45:27;;;;;;;2.50;1.85;;;;;;;17.24;53.52;101115.06;4856063;29;20536;-77
2020/12/19 05:47:53;;;;;;;3.78;1.90;;;;;;;17.24;53.50;101112.44;4860197;29;20025;-77
2020/12/19 05:50:19;;;;;;;2.20;1.63;;;;;;;17.24;53.60;101112.44;4850177;29;20041;-77
2020/12/19 05:52:45;;;;;;;2.50;1.63;;;;;;;17.22;53.51;101102.06;4858610;29;20041;-77
2020/12/19 05:55:16;;;;;;;1.75;1.50;;;;;;;17.22;53.63;101103.78;4847573;29;20025;-77
2020/12/19 05:57:42;;;;;;;2.83;1.90;;;;;;;17.21;53.59;101102.06;4856108;29;20034;-77
2020/12/19 06:00:13;;;;;;;3.83;2.03;;;;;;;17.24;53.42;101107.25;4858909;29;20045;-77
2020/12/19 06:02:39;;;;;;;2.45;1.90;;;;;;;17.22;53.57;101104.69;4844342;29;20053;-77
2020/12/19 06:05:07;;;;;;;1.90;1.65;;;;;;;17.22;53.49;101104.69;4840979;29;20037;-77
2020/12/19 06:07:44;;;;;;;2.30;1.80;;;;;;;17.22;53.25;101101.19;4861348;29;20388;-77
2020/12/19 06:10:12;;;;;;;2.50;1.70;;;;;;;17.21;53.43;101100.31;4865405;29;20030;-77
2020/12/19 06:12:46;;;;;;;2.33;1.80;;;;;;;17.22;53.29;101099.47;4850302;29;20045;-77
2020/12/19 06:15:50;;;;;;;2.10;1.70;;;;;;;17.21;53.42;101096.88;4858137;29;20049;-77
2020/12/19 06:18:26;;;;;;;2.35;1.77;;;;;;;17.20;53.39;101088.22;4826999;29;20073;-77
2020/12/19 06:20:53;;;;;;;2.53;1.77;;;;;;;17.20;53.26;101088.22;4841625;29;20029;-79
2020/12/19 06:23:22;;;;;;;2.08;1.48;;;;;;;17.19;53.28;101078.66;4845426;29;20062;-79
2020/12/19 06:25:47;;;;;;;2.20;1.70;;;;;;;17.20;53.47;101082.13;4845204;29;20408;-79
2020/12/19 06:28:39;;;;;;;2.40;1.50;;;;;;;17.20;53.31;101080.41;4828135;29;20038;-79
2020/12/19 06:31:20;;;;;;;2.72;1.95;;;;;;;17.20;53.28;101087.31;4839904;29;20452;-79
2020/12/19 06:33:48;;;;;;;2.05;1.70;;;;;;;17.19;53.24;101075.19;4837614;29;20110;-79
2020/12/19 06:36:17;;;;;;;2.42;1.70;;;;;;;17.19;53.52;101089.06;4835479;29;20107;-79
2020/12/19 06:38:47;;;;;;;2.20;1.70;;;;;;;17.18;53.38;101084.75;4859330;29;20029;-78
2020/12/19 06:41:44;;;;;;;2.45;1.55;;;;;;;17.18;53.13;101076.94;4860685;29;20022;-78
2020/12/19 06:44:15;;;;;;;1.92;1.60;;;;;;;17.17;53.22;101067.41;4864287;29;20065;-78
2020/12/19 06:46:41;;;;;;;1.92;1.50;;;;;;;17.18;53.17;101078.66;4863288;29;20066;-79
2020/12/19 06:49:21;;;;;;;2.22;1.67;;;;;;;17.18;53.24;101074.34;4837761;29;20121;-80
2020/12/19 06:52:12;;;;;;;1.70;1.50;;;;;;;17.19;53.14;101067.41;4859653;29;20030;-82
2020/12/19 06:54:47;;;;;;;1.98;1.52;;;;;;;17.18;53.51;101081.25;4838921;29;20394;-80
2020/12/19 06:57:33;;;;;;;1.92;1.55;;;;;;;17.17;53.41;101079.53;4850291;29;20034;-80
2020/12/19 07:00:21;;;;;;;1.90;1.48;;;;;;;17.19;53.35;101076.06;4851549;29;20029;-79
2020/12/19 07:02:57;;;;;;;1.85;1.50;;;;;;;17.19;53.62;101077.81;4853536;29;20029;-79
2020/12/19 07:05:25;;;;;;;1.83;1.42;;;;;;;17.19;53.13;101077.81;4846906;29;20040;-79
2020/12/19 07:07:52;;;;;;;2.10;1.70;;;;;;;17.17;53.14;101070.00;4843005;29;20089;-79
2020/12/19 07:10:37;;;;;;;2.28;1.80;;;;;;;17.18;53.37;101068.25;4828708;29;20124;-79
2020/12/19 07:13:03;;;;;;;2.50;1.77;;;;;;;17.17;53.31;101062.19;4843813;29;20042;-79
2020/12/19 07:15:45;;;;;;;2.00;1.50;;;;;;;17.18;53.23;101065.66;4828019;29;20114;-79
2020/12/19 07:18:23;;;;;;;2.00;1.60;;;;;;;17.18;53.23;101065.66;4842662;29;20433;-80
2020/12/19 07:21:03;;;;;;;2.17;1.67;;;;;;;17.17;53.30;101066.53;4843616;29;20041;-80
2020/12/19 07:23:32;;;;;;;2.00;1.50;;;;;;;17.15;53.22;101069.13;4835976;29;20022;-80
2020/12/19 07:25:58;;;;;;;2.30;1.65;;;;;;;17.16;53.36;101073.47;4843382;29;20040;-79
2020/12/19 07:28:23;;;;;;;1.88;1.60;;;;;;;17.16;53.27;101072.59;4812679;29;20369;-79
2020/12/19 07:30:49;;;;;;;1.92;1.65;;;;;;;17.16;53.22;101077.78;4836095;29;20158;-79
2020/12/19 07:33:15;;;;;;;2.15;1.60;;;;;;;17.15;53.32;101074.34;4824978;29;20109;-79
2020/12/19 07:35:41;;;;;;;2.15;1.70;;;;;;;17.15;52.92;101082.13;4830117;29;20036;-79
2020/12/19 07:38:06;;;;;;;2.25;1.58;;;;;;;17.15;53.19;101084.75;4836409;29;20401;-80
2020/12/19 07:40:32;;;;;;;1.83;1.58;;;;;;;17.15;53.34;101083.88;4842942;29;20378;-80
2020/12/19 07:43:06;;;;;;;2.83;1.80;;;;;;;17.15;52.93;101084.75;4828363;29;20425;-80
2020/12/19 07:45:34;;;;;;;2.25;1.83;;;;;;;17.15;53.02;101070.88;4832861;29;20051;-80
2020/12/19 07:48:00;;;;;;;1.50;1.40;;;;;;;17.14;53.15;101077.81;4824076;29;20029;-80
2020/12/19 07:50:31;;;;;;;2.17;1.60;;;;;;;17.14;53.02;101079.56;4839832;29;20030;-79
2020/12/19 07:53:01;;;;;;;1.98;1.60;;;;;;;17.13;53.21;101070.88;4840106;29;20485;-79
2020/12/19 07:55:26;;;;;;;1.67;1.40;;;;;;;17.13;53.28;101073.47;4826207;29;20401;-78
2020/12/19 07:57:56;;;;;;;2.10;1.80;;;;;;;17.15;53.11;101063.06;4825362;29;20094;-78
2020/12/19 08:00:22;;;;;;;1.90;1.63;;;;;;;17.15;53.41;101076.09;4822775;29;20116;-78
2020/12/19 08:02:48;;;;;;;2.10;1.73;;;;;;;17.15;53.27;101070.88;4846910;29;20068;-79
2020/12/19 08:05:13;;;;;;;1.65;1.50;;;;;;;17.15;53.16;101063.06;4820450;29;20117;-78
2020/12/19 08:07:39;;;;;;;1.52;1.23;;;;;;;17.15;53.33;101056.13;4831064;29;20026;-78
2020/12/19 08:10:10;;;;;;;1.75;1.60;;;;;;;17.15;53.38;101063.94;4839178;29;20044;-78
2020/12/19 08:12:39;;;;;;;1.70;1.38;;;;;;;17.16;52.93;101059.59;4858224;29;20037;-79
2020/12/19 08:15:06;;;;;;;1.85;1.50;;;;;;;17.16;53.19;101059.59;4840700;29;20050;-79
2020/12/19 08:17:38;;;;;;;1.83;1.48;;;;;;;17.17;53.11;101058.75;4842114;29;20029;-79
2020/12/19 08:20:04;;;;;;;2.25;1.70;;;;;;;17.17;53.15;101057.00;4858685;29;20037;-79
2020/12/19 08:22:31;;;;;;;2.22;1.63;;;;;;;17.17;53.14;101054.41;4854753;29;20496;-79
2020/12/19 08:24:56;;;;;;;2.30;1.55;;;;;;;17.17;53.24;101057.00;4841160;29;20454;-79
2020/12/19 08:27:40;;;;;;;2.40;1.60;;;;;;;17.18;53.19;101071.75;4835689;29;20033;-76
2020/12/19 08:30:08;;;;;;;2.42;1.50;;;;;;;17.18;53.12;101068.25;4854083;29;20485;-76
2020/12/19 08:32:35;;;;;;;2.08;1.60;;;;;;;17.17;53.04;101058.75;4839893;29;20037;-77
2020/12/19 08:35:00;;;;;;;2.10;1.73;;;;;;;17.17;53.01;101051.78;4854698;29;20237;-77
2020/12/19 08:37:26;;;;;;;2.88;2.00;;;;;;;17.18;53.30;101055.25;4856276;29;20077;-80
2020/12/19 08:40:16;;;;;;;2.72;1.90;;;;;;;17.18;52.98;101055.25;4981973;23;20062;-81
2020/12/19 08:42:43;;;;;;;3.15;1.98;;;;;;;17.21;53.21;101050.06;4869914;29;20026;-80
2020/12/19 08:45:16;;;;;;;3.47;2.05;;;;;;;17.23;53.31;101051.78;4847060;29;20045;-80
2020/12/19 08:47:42;;;;;;;3.95;1.98;;;;;;;17.25;53.38;101054.38;4848699;29;20105;-79
2020/12/19 08:50:08;;;;;;;5.28;2.10;;;;;;;17.28;53.29;101049.16;4838020;29;20098;-80
2020/12/19 08:52:35;;;;;;;2.90;2.03;;;;;;;17.31;53.28;101048.25;4872262;29;20013;-82
2020/12/19 08:55:00;;;;;;;4.05;2.30;;;;;;;17.32;53.39;101045.66;4837352;29;20041;-82
2020/12/19 08:57:27;;;;;;;3.50;1.98;;;;;;;17.34;53.17;101036.13;4838912;29;20014;-82
2020/12/19 08:59:52;;;;;;;4.00;2.35;;;;;;;17.36;53.08;101039.56;4868736;29;20032;-83
2020/12/19 09:02:20;;;;;;;3.50;2.38;;;;;;;17.39;53.25;101041.28;4853969;29;20033;-81
2020/12/19 09:04:51;;;;;;;4.97;2.55;;;;;;;17.41;53.09;101045.59;4868196;29;20022;-81
2020/12/19 09:10:00;;;;;;;7.85;2.40;;;;;;;17.41;52.94;101042.16;5259980;23;20061;-81
2020/12/19 09:12:28;;;;;;;4.78;2.05;;;;;;;17.41;53.32;101035.19;4847520;29;20045;-82
2020/12/19 09:14:53;;;;;;;3.38;2.42;;;;;;;17.42;53.38;101044.75;4851988;29;20025;-77
2020/12/19 09:20:43;;;;;;;3.60;2.20;;;;;;;17.42;53.31;101043.84;4854177;29;20449;-79
2020/12/19 09:23:08;;;;;;;4.55;2.42;;;;;;;17.42;53.38;101062.97;4849506;29;20078;-78
2020/12/19 09:25:37;;;;;;;3.97;2.30;;;;;;;17.43;53.24;101051.66;4863840;29;20033;-81
2020/12/19 09:28:03;;;;;;;3.65;2.40;;;;;;;17.42;53.52;101055.16;4852152;29;20032;-80
2020/12/19 09:30:28;;;;;;;7.22;2.10;;;;;;;17.42;53.70;101054.25;4859943;29;20058;-81
2020/12/19 09:32:57;;;;;;;4.25;2.17;;;;;;;17.42;53.73;101062.06;4856914;29;20044;-79
2020/12/19 09:35:23;;;;;;;3.58;2.30;;;;;;;17.40;53.71;101053.44;4851153;29;20033;-81
2020/12/19 09:37:49;;;;;;;3.30;2.15;;;;;;;17.41;53.60;101055.16;4859180;29;20097;-81
2020/12/19 09:40:15;;;;;;;3.50;2.00;;;;;;;17.41;53.85;101050.81;5302540;23;20119;-80
2020/12/19 09:42:42;;;;;;;3.42;2.10;;;;;;;17.41;53.84;101056.00;4856544;29;20040;-81
2020/12/19 09:45:08;;;;;;;3.40;2.25;;;;;;;17.40;53.61;101051.69;5404229;23;20107;-80
2020/12/19 09:47:34;;;;;;;4.75;2.08;;;;;;;17.40;53.65;101056.91;4871689;29;20065;-79
2020/12/19 09:49:59;;;;;;;3.72;2.30;;;;;;;17.39;53.85;101052.56;4825112;29;20037;-81
2020/12/19 09:52:24;;;;;;;4.10;2.20;;;;;;;17.40;53.87;101053.44;4863414;29;20113;-81
2020/12/19 09:54:52;;;;;;;3.05;1.98;;;;;;;17.41;53.92;101040.41;4869646;29;20041;-81
2020/12/19 09:57:22;;;;;;;4.13;2.08;;;;;;;17.41;54.04;101057.75;4965164;24;20450;-81
2020/12/19 09:59:48;;;;;;;2.75;1.90;;;;;;;17.42;54.04;101051.66;4839959;29;20054;-78
2020/12/19 10:02:14;;;;;;;3.65;2.10;;;;;;;17.41;53.98;101053.41;4810713;29;20120;-79
2020/12/19 10:04:39;;;;;;;5.93;2.30;;;;;;;17.42;54.15;101041.25;4803384;29;20546;-77
2020/12/19 10:07:04;;;;;;;3.35;2.40;;;;;;;17.52;54.50;101034.28;4822252;29;20048;-79
2020/12/19 10:09:29;;;;;;;6.45;2.80;;;;;;;17.57;54.73;101038.59;4795800;29;20087;-77
2020/12/19 10:11:56;;;;;;;6.97;2.85;;;;;;;17.62;54.34;101036.81;4804034;29;20042;-77
2020/12/19 10:14:22;;;;;;;7.35;2.70;;;;;;;17.63;54.48;101024.66;4843148;29;20038;-78
2020/12/19 10:16:48;;;;;;;7.22;2.70;;;;;;;17.61;54.37;101029.88;4845577;29;20056;-82
2020/12/19 10:19:13;;;;;;;7.80;3.03;;;;;;;17.61;54.51;101021.19;4866046;29;20025;-82
2020/12/19 10:21:39;;;;;;;4.82;2.70;;;;;;;17.62;54.46;101028.16;4810211;29;20034;-78
2020/12/19 10:24:04;;;;;;;6.85;2.95;;;;;;;17.62;54.52;101041.16;4821279;29;20124;-78
2020/12/19 10:26:32;;;;;;;8.10;2.70;;;;;;;17.62;54.49;101030.75;4806197;29;20460;-82
2020/12/19 10:28:58;;;;;;;5.22;2.80;;;;;;;17.61;54.45;101027.25;4829781;29;20068;-81
2020/12/19 10:31:30;;;;;;;3.95;2.60;;;;;;;17.69;54.56;101029.84;4823816;29;20030;-79
2020/12/19 10:33:55;;;;;;;4.85;2.95;;;;;;;17.73;54.37;101009.88;4824711;29;20038;-78
2020/12/19 10:36:21;;;;;;;4.03;2.60;;;;;;;17.79;54.49;101012.41;4819211;29;20103;-82
2020/12/19 10:38:47;;;;;;;6.00;2.80;;;;;;;17.87;54.31;101006.28;4818331;29;20593;-78
2020/12/19 10:41:16;;;;;;;4.60;2.78;;;;;;;17.91;54.27;101001.06;4819349;29;20057;-78
2020/12/19 10:43:42;;;;;;;4.60;2.97;;;;;;;17.94;54.15;101003.63;4794722;29;20117;-77
2020/12/19 10:46:08;;;;;;;4.05;2.70;;;;;;;17.96;54.06;101004.50;4824108;29;20190;-78
2020/12/19 10:48:34;;;;;;;4.65;2.80;;;;;;;17.96;53.99;100996.69;4794964;29;20034;-77
2020/12/19 10:50:59;;;;;;;4.13;2.80;;;;;;;17.98;54.20;100997.53;4794850;29;20045;-77
2020/12/19 10:53:27;;;;;;;6.70;3.10;;;;;;;17.96;54.10;101004.50;4793319;29;20478;-77
2020/12/19 10:55:53;;;;;;;5.43;2.63;;;;;;;17.96;53.94;101009.69;4798748;29;20053;-78
2020/12/19 10:58:18;;;;;;;3.92;2.90;;;;;;;17.96;54.06;101022.72;4826155;29;20042;-78
2020/12/19 11:00:44;;;;;;;6.03;2.70;;;;;;;17.94;54.11;101020.13;4843733;29;20041;-81
2020/12/19 11:03:09;;;;;;;4.35;2.65;;;;;;;17.94;54.33;101029.69;4834430;29;20033;-81
2020/12/19 11:05:44;;;;;;;4.47;2.97;;;;;;;17.94;54.21;101022.72;4814650;29;20066;-77
2020/12/19 11:08:09;;;;;;;4.88;3.38;;;;;;;17.94;54.06;101020.13;4819074;29;20042;-77
2020/12/19 11:10:35;;;;;;;5.32;2.55;;;;;;;17.92;54.02;101031.41;4833804;29;20048;-77
2020/12/19 11:13:04;;;;;;;4.40;2.88;;;;;;;17.91;54.15;101030.56;4819545;29;20129;-77
2020/12/19 11:15:30;;;;;;;4.80;2.83;;;;;;;17.87;54.23;101029.72;4845438;29;20030;-78
2020/12/19 11:17:56;;;;;;;5.30;2.60;;;;;;;17.86;54.38;101024.53;4822577;29;20053;-77
2020/12/19 11:20:22;;;;;;;5.93;2.97;;;;;;;17.85;54.41;101004.56;4841814;29;20030;-77
2020/12/19 11:22:47;;;;;;;3.67;2.65;;;;;;;17.81;54.63;101011.53;4841696;29;20034;-77
2020/12/19 11:25:13;;;;;;;3.45;2.63;;;;;;;17.81;54.57;101008.03;4805991;29;20045;-77
2020/12/19 11:27:38;;;;;;;4.45;2.75;;;;;;;17.81;54.60;101008.03;4847025;29;20447;-78
2020/12/19 11:30:04;;;;;;;2.97;2.40;;;;;;;17.80;54.68;101007.19;4813660;29;20093;-82
2020/12/19 11:32:32;;;;;;;4.78;2.63;;;;;;;17.81;54.46;101008.03;4799059;29;20069;-76